Time;durP1;ratioP1;P1;durP2;ratioP2;P2;SDS_P1;SDS_P2;PMS_P1;PMS_P2;Temp;Humidity;BMP_temperature;BMP_pressure;BME280_temperature;BME280_humidity;BME280_pressure;Samples;Min_cycle;Max_cycle;Signal;HPM_P1;HPM_P2
2023/11/13 00:00:47;;;;;;;1.27;1.17;;;;;;;3.30;82.65;99240.22;5056947;28;20045;-69
2023/11/13 00:03:16;;;;;;;0.83;0.83;;;;;;;3.27;82.09;99230.91;5057549;28;20154;-69
2023/11/13 00:05:46;;;;;;;1.15;1.00;;;;;;;3.21;81.68;99224.91;5056795;28;20095;-69
2023/11/13 00:08:15;;;;;;;1.70;1.13;;;;;;;3.18;81.27;99240.81;5056753;28;20052;-70
2023/11/13 00:10:45;;;;;;;1.07;1.03;;;;;;;3.22;81.57;99241.72;5056718;28;20043;-70
2023/11/13 00:13:14;;;;;;;0.77;0.77;;;;;;;3.28;81.42;99240.19;5055837;28;20068;-70
2023/11/13 00:15:42;;;;;;;0.50;0.50;;;;;;;3.24;81.31;99235.88;5056779;28;20045;-69
2023/11/13 00:18:12;;;;;;;;;;;;;;;3.22;81.47;99242.56;5057114;28;20033;-70
2023/11/13 00:20:41;;;;;;;0.50;0.50;;;;;;;3.17;81.38;99243.28;5056609;28;19920;-70
2023/11/13 00:23:09;;;;;;;0.65;0.65;;;;;;;3.03;82.11;99229.53;5056590;28;20059;-69
2023/11/13 00:25:38;;;;;;;0.90;0.90;;;;;;;3.10;81.56;99246.50;5056528;28;20056;-70
2023/11/13 00:28:08;;;;;;;0.50;0.50;;;;;;;3.10;81.42;99246.50;5056409;28;20041;-71
2023/11/13 00:30:39;;;;;;;0.95;0.85;;;;;;;2.90;81.88;99222.53;5055191;28;20047;-69
2023/11/13 00:33:08;;;;;;;0.70;0.70;;;;;;;3.10;82.26;99251.53;5056396;28;20056;-70
2023/11/13 00:35:37;;;;;;;0.60;0.60;;;;;;;3.09;82.29;99262.44;5055117;28;20037;-69
2023/11/13 00:38:05;;;;;;;1.90;1.80;;;;;;;3.06;82.03;99259.84;5055041;28;20048;-70
2023/11/13 00:40:35;;;;;;;0.40;0.40;;;;;;;3.08;81.87;99263.25;5055066;28;20041;-69
2023/11/13 00:43:03;;;;;;;;;;;;;;;3.18;81.98;99272.72;5055289;28;20083;-71
2023/11/13 00:45:33;;;;;;;0.40;0.40;;;;;;;3.22;82.37;99279.53;5056449;28;20015;-70
2023/11/13 00:48:03;;;;;;;0.70;0.70;;;;;;;3.21;82.05;99275.31;5056385;28;20118;-69
2023/11/13 00:50:32;;;;;;;0.40;0.40;;;;;;;3.27;81.90;99270.41;5054987;28;20047;-70
2023/11/13 00:53:01;;;;;;;;;;;;;;;3.25;81.98;99277.09;5056275;28;20103;-69
2023/11/13 00:55:29;;;;;;;2.50;2.30;;;;;;;3.13;81.93;99256.66;5055870;28;20020;-69
2023/11/13 00:57:59;;;;;;;1.25;1.17;;;;;;;3.20;82.26;99274.47;5055931;28;20135;-69
2023/11/13 01:00:28;;;;;;;0.50;0.50;;;;;;;3.28;82.49;99279.69;5055903;28;20067;-69
2023/11/13 01:02:58;;;;;;;2.90;1.13;;;;;;;3.35;82.22;99279.84;5054957;28;20063;-70
2023/11/13 01:05:27;;;;;;;1.10;1.05;;;;;;;3.35;82.26;99272.28;5055843;28;20064;-70
2023/11/13 01:07:56;;;;;;;1.13;1.08;;;;;;;3.49;82.34;99286.84;5054655;28;20041;-69
2023/11/13 01:10:26;;;;;;;0.63;0.63;;;;;;;3.41;82.88;99286.66;5055874;28;20096;-69
2023/11/13 01:12:55;;;;;;;0.57;0.57;;;;;;;3.44;82.88;99294.31;5054514;28;20041;-70
2023/11/13 01:15:24;;;;;;;0.50;0.50;;;;;;;3.51;82.50;99302.84;5055657;28;20095;-70
2023/11/13 01:17:53;;;;;;;0.70;0.70;;;;;;;3.44;82.79;99301.88;5055503;28;20037;-69
2023/11/13 01:20:23;;;;;;;0.50;0.50;;;;;;;3.40;82.58;99292.56;5054258;28;20048;-68
2023/11/13 01:22:52;;;;;;;0.60;0.60;;;;;;;3.47;83.21;99299.44;5054312;28;20041;-69
2023/11/13 01:25:21;;;;;;;0.43;0.43;;;;;;;3.49;82.94;99302.81;5055371;28;20048;-70
2023/11/13 01:27:51;;;;;;;0.52;0.52;;;;;;;3.45;82.51;99307.78;5055325;28;20049;-69
2023/11/13 01:30:21;;;;;;;0.50;0.50;;;;;;;3.45;82.75;99310.28;5055156;28;20049;-70
2023/11/13 01:32:50;;;;;;;1.60;1.48;;;;;;;3.32;82.36;99286.47;5055331;28;20056;-70
2023/11/13 01:35:19;;;;;;;0.83;0.83;;;;;;;3.39;83.20;99311.00;5055188;28;20076;-69
2023/11/13 01:37:49;;;;;;;33.13;2.10;;;;;;;3.37;83.34;99310.13;5054001;28;20560;-69
2023/11/13 01:40:18;;;;;;;0.73;0.73;;;;;;;3.34;82.87;99307.53;5054474;28;20090;-69
2023/11/13 01:42:47;;;;;;;1.17;1.08;;;;;;;3.43;83.72;99312.81;5055088;28;20056;-69
2023/11/13 01:45:17;;;;;;;0.55;0.55;;;;;;;3.50;83.77;99317.16;5054113;28;20048;-68
2023/11/13 01:47:46;;;;;;;;;;;;;;;3.50;82.98;99314.63;5054491;28;20053;-70
2023/11/13 01:50:16;;;;;;;0.77;0.73;;;;;;;3.15;83.01;99255.00;5054755;28;19928;-69
2023/11/13 01:52:45;;;;;;;;;;;;;;;3.51;83.41;99310.41;5054143;28;20045;-70
2023/11/13 01:55:17;;;;;;;0.65;0.65;;;;;;;3.53;83.53;99314.66;5054204;28;20366;-70
2023/11/13 01:57:46;;;;;;;1.98;1.83;;;;;;;3.57;82.89;99324.03;5054837;28;20059;-70
2023/11/13 02:00:16;;;;;;;0.82;0.82;;;;;;;3.55;82.92;99313.03;5053841;28;20560;-68
2023/11/13 02:02:45;;;;;;;1.13;1.05;;;;;;;3.67;82.88;99317.50;5054557;28;20049;-69
2023/11/13 02:05:13;;;;;;;0.68;0.68;;;;;;;3.67;83.41;99323.38;5053514;28;20037;-69
2023/11/13 02:07:43;;;;;;;0.98;0.82;;;;;;;3.72;83.46;99320.97;5055657;28;20410;-69
2023/11/13 02:10:13;;;;;;;0.90;0.90;;;;;;;3.72;83.38;99331.91;5053307;28;20099;-68
2023/11/13 02:12:45;;;;;;;0.40;0.40;;;;;;;3.74;82.99;99331.94;5053678;28;20049;-68
2023/11/13 02:15:15;;;;;;;0.70;0.70;;;;;;;3.71;83.28;99322.66;5054447;28;20073;-69
2023/11/13 02:17:59;;;;;;;1.10;0.93;;;;;;;3.37;83.00;99267.25;5054494;28;20076;-69
2023/11/13 02:20:29;;;;;;;0.43;0.43;;;;;;;3.63;83.32;99303.97;5053250;28;20049;-70
2023/11/13 02:22:59;;;;;;;0.93;0.93;;;;;;;3.57;83.31;99306.38;5053095;28;20095;-69
2023/11/13 02:25:29;;;;;;;0.85;0.85;;;;;;;3.58;83.21;99312.25;5054296;28;20053;-70
2023/11/13 02:27:58;;;;;;;0.80;0.80;;;;;;;3.62;83.33;99316.56;5053339;28;20060;-68
2023/11/13 02:30:27;;;;;;;0.50;0.50;;;;;;;3.62;83.60;99314.88;5054356;28;20565;-69
2023/11/13 02:32:57;;;;;;;0.93;0.93;;;;;;;3.50;83.19;99294.44;5054156;28;20061;-69
2023/11/13 02:35:25;;;;;;;;;;;;;;;3.63;83.09;99305.63;5053704;28;20483;-68
2023/11/13 02:37:55;;;;;;;0.73;0.73;;;;;;;3.47;83.44;99274.19;5053456;28;20319;-70
2023/11/13 02:40:24;;;;;;;0.45;0.45;;;;;;;3.55;83.53;99290.31;5054079;28;20052;-69
2023/11/13 02:42:54;;;;;;;1.45;1.35;;;;;;;3.57;83.07;99306.38;5053864;28;20090;-70
2023/11/13 02:45:24;;;;;;;1.60;0.70;;;;;;;3.54;83.49;99296.22;5053961;28;20048;-69
2023/11/13 02:47:53;;;;;;;0.85;0.85;;;;;;;3.39;83.68;99276.56;5053839;28;20052;-71
2023/11/13 02:50:24;;;;;;;0.97;0.97;;;;;;;3.50;83.63;99301.16;5052527;28;20135;-70
2023/11/13 02:52:52;;;;;;;0.65;0.65;;;;;;;3.14;83.08;99255.84;5053527;28;20286;-70
2023/11/13 02:55:21;;;;;;;0.50;0.50;;;;;;;3.40;82.84;99317.78;5053996;28;20071;-70
2023/11/13 02:57:50;;;;;;;1.30;1.20;;;;;;;3.37;83.03;99310.13;5052610;28;20124;-70
2023/11/13 03:00:23;;;;;;;0.68;0.68;;;;;;;3.37;83.45;99312.66;5054100;28;20063;-71
2023/11/13 03:02:52;;;;;;;0.30;0.30;;;;;;;3.31;83.60;99302.44;5053687;28;20053;-70
2023/11/13 03:05:21;;;;;;;0.60;0.60;;;;;;;3.35;83.59;99315.16;5053360;28;20076;-70
2023/11/13 03:07:50;;;;;;;0.50;0.50;;;;;;;3.36;82.79;99310.94;5052324;28;20041;-70
2023/11/13 03:10:19;;;;;;;0.73;0.73;;;;;;;3.24;82.83;99305.63;5052280;28;20049;-70
2023/11/13 03:12:48;;;;;;;0.70;0.70;;;;;;;3.21;82.79;99303.06;5053576;28;20120;-71
2023/11/13 03:15:16;;;;;;;1.25;1.15;;;;;;;3.09;83.63;99293.56;5052378;28;20403;-69
2023/11/13 03:17:47;;;;;;;0.63;0.63;;;;;;;2.94;83.59;99270.53;5054234;28;20044;-70
2023/11/13 03:20:15;;;;;;;0.65;0.65;;;;;;;3.09;83.01;99300.25;5035929;28;20056;-69
2023/11/13 03:22:44;;;;;;;0.93;0.93;;;;;;;3.05;83.55;99295.94;5053364;28;20049;-70
2023/11/13 03:25:14;;;;;;;0.45;0.45;;;;;;;3.06;83.13;99300.19;5053751;28;20110;-71
2023/11/13 03:27:43;;;;;;;0.95;0.90;;;;;;;3.01;82.81;99302.59;5053695;28;20053;-69
2023/11/13 03:30:13;;;;;;;1.15;1.10;;;;;;;2.98;83.00;99311.75;5052139;28;20101;-70
2023/11/13 03:32:43;;;;;;;1.08;1.08;;;;;;;2.93;82.76;99305.78;5068974;28;20045;-68
2023/11/13 03:35:16;;;;;;;;;;;;;;;2.89;82.85;99306.50;5052361;28;20053;-71
2023/11/13 03:37:46;;;;;;;1.23;1.20;;;;;;;2.97;82.74;99289.91;5053640;28;19943;-70
2023/11/13 03:40:16;;;;;;;0.60;0.60;;;;;;;2.85;82.84;99290.47;5053259;28;20057;-70
2023/11/13 03:42:45;;;;;;;10.32;1.17;;;;;;;2.70;82.83;99290.97;5052090;28;20037;-69
2023/11/13 03:45:14;;;;;;;1.40;1.30;;;;;;;2.64;83.17;99295.84;5053450;28;20143;-69
2023/11/13 03:47:43;;;;;;;1.05;1.02;;;;;;;2.51;82.61;99283.78;5053465;28;20037;-68
2023/11/13 03:50:13;;;;;;;1.97;1.80;;;;;;;2.37;82.32;99280.06;5053123;28;20406;-68
2023/11/13 03:52:42;;;;;;;0.88;0.88;;;;;;;2.25;82.82;99279.75;5051865;28;20132;-69
2023/11/13 03:55:10;;;;;;;0.63;0.63;;;;;;;2.29;82.35;99281.53;5053326;28;20049;-70
2023/11/13 03:57:39;;;;;;;2.17;1.27;;;;;;;2.33;82.37;99290.00;5053056;28;20323;-69
2023/11/13 04:00:09;;;;;;;1.23;1.13;;;;;;;2.20;83.06;99296.41;5051911;28;20498;-68
2023/11/13 04:02:40;;;;;;;1.95;1.85;;;;;;;2.08;82.72;99288.53;5052220;28;20049;-68
2023/11/13 04:05:09;;;;;;;1.13;0.98;;;;;;;2.17;83.18;99296.31;5053037;28;20049;-68
2023/11/13 04:07:39;;;;;;;2.03;1.15;;;;;;;2.11;82.82;99288.63;5052950;28;20052;-69
2023/11/13 04:10:14;;;;;;;1.02;1.00;;;;;;;2.17;83.26;99298.84;5052945;28;20045;-69
2023/11/13 04:12:43;;;;;;;0.60;0.60;;;;;;;2.24;82.78;99303.22;5052088;28;20053;-68
2023/11/13 04:15:12;;;;;;;0.95;0.95;;;;;;;2.19;83.49;99304.75;5053042;28;20068;-68
2023/11/13 04:17:42;;;;;;;0.50;0.50;;;;;;;2.21;83.55;99308.16;5052638;28;20083;-68
2023/11/13 04:20:12;;;;;;;0.80;0.80;;;;;;;2.16;83.63;99274.47;5056978;28;20075;-69
2023/11/13 04:22:43;;;;;;;0.68;0.68;;;;;;;2.27;83.74;99283.16;5055772;28;20280;-69
2023/11/13 04:25:13;;;;;;;0.50;0.50;;;;;;;2.27;82.88;99278.13;5056878;28;20432;-69
2023/11/13 04:27:42;;;;;;;1.47;1.37;;;;;;;2.11;83.14;99280.22;5055684;28;20570;-69
2023/11/13 04:30:11;;;;;;;1.27;1.23;;;;;;;2.14;83.32;99303.78;5056586;28;20143;-69
2023/11/13 04:32:42;;;;;;;1.80;1.70;;;;;;;2.08;83.08;99308.66;5056710;28;20052;-68
2023/11/13 04:35:11;;;;;;;1.75;1.65;;;;;;;2.13;83.17;99313.81;5056902;28;20099;-69
2023/11/13 04:37:40;;;;;;;2.08;1.15;;;;;;;2.22;82.79;99309.03;5056135;28;20076;-68
2023/11/13 04:40:11;;;;;;;0.80;0.80;;;;;;;2.27;83.22;99300.78;5056248;28;20048;-69
2023/11/13 04:42:40;;;;;;;2.58;1.80;;;;;;;2.33;83.58;99298.41;5056261;28;20040;-69
2023/11/13 04:45:10;;;;;;;0.40;0.40;;;;;;;2.35;83.04;99314.41;5056136;28;20487;-69
2023/11/13 04:47:38;;;;;;;0.80;0.80;;;;;;;2.25;83.38;99315.00;5056060;28;20045;-69
2023/11/13 04:50:08;;;;;;;0.70;0.70;;;;;;;2.31;83.32;99320.19;5056510;28;20399;-70
2023/11/13 04:52:37;;;;;;;0.57;0.55;;;;;;;2.33;83.53;99308.47;5055839;28;20049;-69
2023/11/13 04:55:09;;;;;;;0.63;0.63;;;;;;;2.38;83.22;99311.97;5055981;28;20037;-69
2023/11/13 04:57:40;;;;;;;1.23;1.15;;;;;;;2.33;83.49;99303.44;5056306;28;20048;-70
2023/11/13 05:00:11;;;;;;;2.03;1.83;;;;;;;2.36;82.57;99321.16;5055821;28;20056;-70
2023/11/13 05:02:41;;;;;;;1.20;1.10;;;;;;;2.18;83.25;99338.31;5056205;28;20148;-68
2023/11/13 05:05:11;;;;;;;3.25;3.03;;;;;;;2.08;83.50;99336.34;5055861;28;20578;-68
2023/11/13 05:07:40;;;;;;;1.52;1.30;;;;;;;2.04;83.47;99347.13;5056237;28;20434;-70
2023/11/13 05:10:10;;;;;;;3.50;3.20;;;;;;;2.00;83.25;99342.81;5055545;28;20128;-70
2023/11/13 05:12:41;;;;;;;1.63;1.52;;;;;;;1.95;82.68;99340.19;5055645;28;20274;-68
2023/11/13 05:15:13;;;;;;;3.40;3.10;;;;;;;1.90;82.68;99343.38;5055679;28;20095;-68
2023/11/13 05:17:42;;;;;;;1.00;0.95;;;;;;;1.78;82.99;99360.63;5055641;28;20129;-68
2023/11/13 05:20:12;;;;;;;2.03;1.88;;;;;;;1.85;83.75;99367.53;5055455;28;20037;-69
2023/11/13 05:22:40;;;;;;;4.93;4.53;;;;;;;1.76;83.69;99367.28;5055465;28;20033;-68
2023/11/13 05:25:09;;;;;;;1.95;1.85;;;;;;;1.74;83.15;99368.91;5055476;28;20045;-69
2023/11/13 05:27:40;;;;;;;4.05;2.60;;;;;;;1.81;82.94;99365.75;5055962;28;20406;-68
2023/11/13 05:30:12;;;;;;;0.85;0.85;;;;;;;1.68;82.95;99369.59;5054553;28;20053;-67
2023/11/13 05:32:41;;;;;;;1.92;1.48;;;;;;;1.64;83.53;99377.00;5055253;28;20448;-67
2023/11/13 05:35:10;;;;;;;3.70;2.23;;;;;;;1.71;83.74;99371.34;5055221;28;20033;-69
2023/11/13 05:37:39;;;;;;;1.60;1.50;;;;;;;1.81;82.90;99371.66;5055031;28;20290;-68
2023/11/13 05:40:08;;;;;;;1.48;1.38;;;;;;;1.75;83.51;99368.13;5055039;28;20045;-68
2023/11/13 05:42:37;;;;;;;0.90;0.90;;;;;;;1.64;83.63;99357.75;5055015;28;20055;-68
2023/11/13 05:45:14;;;;;;;2.92;2.00;;;;;;;1.68;83.32;99373.78;5055030;28;20048;-68
2023/11/13 05:47:45;;;;;;;0.60;0.60;;;;;;;1.57;82.95;99386.03;5055595;28;20099;-66
2023/11/13 05:50:14;;;;;;;0.88;0.88;;;;;;;1.54;82.81;99380.03;5055143;28;20059;-67
2023/11/13 05:52:43;;;;;;;1.20;1.10;;;;;;;1.44;82.88;99368.84;5053511;28;20376;-67
2023/11/13 05:55:13;;;;;;;0.73;0.73;;;;;;;1.52;83.63;99396.75;5054830;28;20274;-67
2023/11/13 05:57:42;;;;;;;1.35;1.25;;;;;;;1.55;83.06;99402.72;5054713;28;20033;-68
2023/11/13 06:00:13;;;;;;;3.70;1.77;;;;;;;1.58;83.13;99391.91;5055028;28;20045;-66
2023/11/13 06:02:42;;;;;;;3.13;2.13;;;;;;;1.60;83.60;99400.34;5053613;28;20323;-69
2023/11/13 06:05:11;;;;;;;3.30;1.52;;;;;;;1.67;83.69;99397.22;5054584;28;20041;-69
2023/11/13 06:07:40;;;;;;;0.60;0.60;;;;;;;1.68;83.99;99392.22;5054593;28;20041;-68
2023/11/13 06:10:10;;;;;;;1.13;1.07;;;;;;;1.75;84.08;99405.84;5054406;28;20044;-68
2023/11/13 06:12:39;;;;;;;0.90;0.90;;;;;;;1.76;83.75;99397.47;5054643;28;20278;-67
2023/11/13 06:15:13;;;;;;;2.22;1.08;;;;;;;1.82;84.24;99390.13;5054363;28;20045;-67
2023/11/13 06:17:43;;;;;;;1.20;1.10;;;;;;;2.01;84.68;99389.84;5053517;28;20052;-68
2023/11/13 06:20:13;;;;;;;1.48;1.38;;;;;;;2.17;83.97;99391.97;5054653;28;20057;-68
2023/11/13 06:22:43;;;;;;;1.00;1.00;;;;;;;2.21;84.52;99401.28;5054597;28;20044;-67
2023/11/13 06:25:12;;;;;;;2.92;2.60;;;;;;;2.24;84.58;99388.81;5054196;28;20499;-69
2023/11/13 06:27:41;;;;;;;1.75;1.65;;;;;;;2.59;84.96;99409.91;5054153;28;20053;-68
2023/11/13 06:30:12;;;;;;;1.20;1.15;;;;;;;2.89;84.94;99407.28;5054315;28;20037;-68
2023/11/13 06:32:43;;;;;;;1.73;1.63;;;;;;;2.91;84.64;99418.25;5054379;28;20124;-70
2023/11/13 06:35:12;;;;;;;0.40;0.40;;;;;;;2.81;84.16;99413.84;5052894;28;20045;-70
2023/11/13 06:37:42;;;;;;;1.52;1.23;;;;;;;2.68;84.26;99407.63;5053895;28;20037;-70
2023/11/13 06:40:16;;;;;;;1.00;0.98;;;;;;;2.73;83.99;99416.97;5054053;28;20037;-69
2023/11/13 06:42:46;;;;;;;0.73;0.73;;;;;;;2.75;84.23;99409.47;5054018;28;20052;-71
2023/11/13 06:45:16;;;;;;;1.17;1.08;;;;;;;2.86;84.22;99422.31;5053799;28;20048;-70
2023/11/13 06:47:50;;;;;;;1.33;1.23;;;;;;;2.84;84.90;99416.41;5054172;28;20041;-71
2023/11/13 06:50:20;;;;;;;1.88;1.77;;;;;;;2.84;84.63;99423.97;5053958;28;20426;-70
2023/11/13 06:52:50;;;;;;;0.80;0.80;;;;;;;2.84;84.42;99423.97;5052778;28;20056;-72
2023/11/13 06:55:20;;;;;;;1.70;1.60;;;;;;;2.80;85.05;99422.19;5040017;28;20095;-70
2023/11/13 06:57:48;;;;;;;0.85;0.85;;;;;;;2.80;85.25;99429.75;5033524;28;20125;-71
2023/11/13 07:00:19;;;;;;;1.60;1.25;;;;;;;2.84;84.55;99421.44;5033765;28;20049;-71
2023/11/13 07:02:50;;;;;;;2.92;2.72;;;;;;;2.92;84.98;99422.50;5033603;28;20137;-70
2023/11/13 07:05:20;;;;;;;3.92;1.98;;;;;;;3.03;84.64;99416.03;5033646;28;20045;-71
2023/11/13 07:07:50;;;;;;;2.70;1.95;;;;;;;3.00;84.85;99400.88;5033895;28;20048;-71
2023/11/13 07:10:21;;;;;;;0.63;0.63;;;;;;;3.11;84.55;99417.09;5033995;28;20068;-72
2023/11/13 07:12:50;;;;;;;0.73;0.73;;;;;;;3.19;84.61;99408.06;5033518;28;20099;-70
2023/11/13 07:15:19;;;;;;;1.53;1.27;;;;;;;3.02;85.23;99374.03;5036761;28;20037;-72
2023/11/13 07:17:50;;;;;;;;;;;;;;;3.18;85.34;99411.38;5040424;28;20103;-72
2023/11/13 07:20:18;;;;;;;1.48;1.27;;;;;;;3.13;84.69;99387.72;5034071;28;20417;-72
2023/11/13 07:22:50;;;;;;;0.57;0.57;;;;;;;2.95;85.62;99354.53;5033410;28;20041;-72
2023/11/13 07:25:19;;;;;;;0.82;0.82;;;;;;;3.31;85.65;99404.13;5033163;28;20073;-72
2023/11/13 07:27:49;;;;;;;0.93;0.93;;;;;;;3.44;84.94;99405.28;5033324;28;20045;-72
2023/11/13 07:30:17;;;;;;;0.82;0.82;;;;;;;3.50;85.55;99400.41;5033350;28;20037;-72
2023/11/13 07:32:46;;;;;;;0.40;0.40;;;;;;;3.53;85.30;99405.47;5033406;28;20053;-72
2023/11/13 07:35:16;;;;;;;0.95;0.95;;;;;;;3.51;85.10;99407.13;5032723;28;20033;-71
2023/11/13 07:37:45;;;;;;;0.40;0.40;;;;;;;3.47;84.71;99407.03;5033870;28;20128;-71
2023/11/13 07:40:14;;;;;;;0.77;0.77;;;;;;;3.48;85.46;99402.00;5032797;28;20052;-71
2023/11/13 07:42:44;;;;;;;1.45;1.33;;;;;;;3.60;85.41;99416.59;5039348;28;20045;-71
2023/11/13 07:45:13;;;;;;;2.60;1.73;;;;;;;3.70;85.47;99416.81;5053173;28;20049;-72
2023/11/13 07:47:42;;;;;;;0.70;0.70;;;;;;;3.77;85.22;99406.03;5052592;28;20376;-70
2023/11/13 07:50:12;;;;;;;2.67;1.83;;;;;;;3.90;85.23;99413.06;5053113;28;20398;-72
2023/11/13 07:52:44;;;;;;;1.55;1.45;;;;;;;3.92;85.12;99411.41;5046742;28;20053;-72
2023/11/13 07:55:14;;;;;;;0.98;0.93;;;;;;;3.93;85.05;99413.13;5048315;28;20053;-72
2023/11/13 07:57:43;;;;;;;1.08;0.98;;;;;;;3.89;84.72;99400.38;5056369;28;20544;-72
2023/11/13 08:00:15;;;;;;;1.52;1.42;;;;;;;4.04;85.00;99426.81;5057170;28;20049;-71
2023/11/13 08:02:44;;;;;;;2.45;2.25;;;;;;;3.75;85.30;99382.44;5049634;28;20077;-73
2023/11/13 08:05:16;;;;;;;1.23;0.80;;;;;;;4.17;85.48;99430.47;5040930;28;20064;-71
2023/11/13 08:07:52;;;;;;;2.85;1.25;;;;;;;4.20;85.03;99430.50;5056794;28;20462;-72
2023/11/13 08:10:21;;;;;;;3.38;1.98;;;;;;;4.29;84.85;99435.75;5056747;28;20052;-71
2023/11/13 08:12:50;;;;;;;1.37;1.27;;;;;;;4.43;85.13;99428.44;5048665;28;20042;-71
2023/11/13 08:15:19;;;;;;;1.13;1.02;;;;;;;4.53;84.94;99442.97;5037281;28;20103;-73
2023/11/13 08:17:52;;;;;;;0.70;0.70;;;;;;;4.59;85.19;99455.69;5036962;28;20045;-71
2023/11/13 08:20:26;;;;;;;1.65;1.50;;;;;;;4.58;84.95;99451.47;5036676;28;20049;-72
2023/11/13 08:22:57;;;;;;;0.55;0.55;;;;;;;4.56;84.66;99448.06;5037137;28;20157;-71
2023/11/13 08:25:27;;;;;;;0.70;0.70;;;;;;;4.53;84.79;99437.91;5036667;28;20060;-71
2023/11/13 08:27:57;;;;;;;0.82;0.82;;;;;;;4.42;84.17;99429.25;5037023;28;20068;-71
2023/11/13 08:30:26;;;;;;;0.30;0.30;;;;;;;4.35;84.31;99424.91;5035906;28;20121;-72
2023/11/13 08:32:56;;;;;;;0.65;0.65;;;;;;;4.39;84.66;99406.47;5036643;28;20510;-71
2023/11/13 08:35:25;;;;;;;3.00;2.70;;;;;;;4.64;84.29;99413.69;5036400;28;20053;-71
2023/11/13 08:37:53;;;;;;;3.10;1.15;;;;;;;4.89;84.13;99413.31;5036282;28;20046;-72
2023/11/13 08:40:24;;;;;;;4.40;2.35;;;;;;;5.02;84.24;99416.88;5036020;28;20495;-71
2023/11/13 08:42:54;;;;;;;0.82;0.82;;;;;;;5.08;84.20;99420.38;5036674;28;20045;-72
2023/11/13 08:45:24;;;;;;;1.20;1.15;;;;;;;5.13;83.86;99418.78;5036274;28;20049;-73
2023/11/13 08:47:53;;;;;;;;;;;;;;;5.27;83.50;99422.38;5036633;28;20095;-71
2023/11/13 08:50:24;;;;;;;1.77;1.67;;;;;;;5.32;83.67;99420.78;5036032;28;19921;-71
2023/11/13 08:52:56;;;;;;;1.35;1.25;;;;;;;5.42;83.23;99427.66;5035707;28;20497;-73
2023/11/13 08:55:26;;;;;;;2.17;2.05;;;;;;;5.59;83.31;99419.50;5046087;28;20140;-72
2023/11/13 08:57:57;;;;;;;7.10;2.85;;;;;;;5.76;82.97;99407.94;5055878;28;20044;-72
2023/11/13 09:00:31;;;;;;;0.57;0.55;;;;;;;5.87;82.59;99406.41;5056070;28;20037;-72
2023/11/13 09:02:59;;;;;;;0.57;0.57;;;;;;;5.98;82.31;99403.19;5051128;28;20065;-71
2023/11/13 09:05:28;;;;;;;1.40;1.20;;;;;;;6.02;81.46;99411.69;5034441;28;20083;-73
2023/11/13 09:07:58;;;;;;;0.32;0.32;;;;;;;6.02;81.45;99409.16;5035939;28;20083;-73
2023/11/13 09:10:29;;;;;;;0.65;0.65;;;;;;;6.04;80.71;99407.50;5034607;28;20041;-72
2023/11/13 09:13:00;;;;;;;0.60;0.60;;;;;;;6.07;80.62;99410.03;5035530;28;20045;-73
2023/11/13 09:15:31;;;;;;;1.45;1.15;;;;;;;6.12;80.64;99420.25;5035607;28;20053;-72
2023/11/13 09:18:05;;;;;;;0.60;0.60;;;;;;;6.04;80.47;99410.03;5054970;28;20059;-72
2023/11/13 09:20:35;;;;;;;1.10;1.00;;;;;;;6.12;79.98;99405.88;5045541;28;20492;-73
2023/11/13 09:23:05;;;;;;;2.40;1.80;;;;;;;6.13;80.18;99399.16;5035631;28;20045;-73
2023/11/13 09:25:35;;;;;;;1.95;1.40;;;;;;;6.08;79.83;99419.34;5035352;28;20038;-72
2023/11/13 09:28:05;;;;;;;0.65;0.65;;;;;;;6.08;79.62;99405.03;5035429;28;20045;-71
2023/11/13 09:30:34;;;;;;;1.20;1.15;;;;;;;6.20;79.50;99401.78;5035880;28;20561;-73
2023/11/13 09:33:05;;;;;;;1.48;1.38;;;;;;;6.36;78.93;99418.03;5035613;28;20037;-73
2023/11/13 09:35:36;;;;;;;1.05;0.93;;;;;;;6.46;79.15;99428.28;5035377;28;20060;-72
2023/11/13 09:38:08;;;;;;;0.73;0.73;;;;;;;6.42;79.07;99426.53;5035370;28;20059;-72
2023/11/13 09:40:39;;;;;;;4.28;2.40;;;;;;;6.51;78.93;99418.19;5034643;28;20099;-72
2023/11/13 09:43:14;;;;;;;1.23;1.13;;;;;;;6.55;78.87;99410.63;5035483;28;20139;-71
2023/11/13 09:45:46;;;;;;;0.82;0.82;;;;;;;6.68;78.76;99414.16;5035364;28;20041;-72
2023/11/13 09:48:19;;;;;;;2.60;1.63;;;;;;;6.77;79.49;99415.94;5035055;28;20069;-72
2023/11/13 09:50:49;;;;;;;2.08;1.23;;;;;;;6.78;79.07;99407.47;5033897;28;20063;-72
2023/11/13 09:53:25;;;;;;;0.60;0.60;;;;;;;6.84;79.47;99420.25;5035588;28;20447;-72
2023/11/13 09:55:56;;;;;;;0.98;0.82;;;;;;;6.92;79.70;99424.53;5034897;28;20045;-72
2023/11/13 09:58:25;;;;;;;1.23;1.13;;;;;;;7.00;78.81;99434.75;5035135;28;20060;-72
2023/11/13 10:00:55;;;;;;;2.33;2.13;;;;;;;7.12;79.01;99424.72;5045252;28;20059;-72
2023/11/13 10:03:24;;;;;;;0.95;0.95;;;;;;;7.19;79.02;99412.09;5054735;28;20075;-72
2023/11/13 10:05:53;;;;;;;1.13;1.08;;;;;;;7.28;78.46;99406.25;5054984;28;20033;-72
2023/11/13 10:08:24;;;;;;;1.38;1.27;;;;;;;7.26;77.91;99407.94;5049522;28;20065;-74
2023/11/13 10:10:55;;;;;;;1.10;1.02;;;;;;;7.32;78.80;99400.34;5039507;28;20148;-71
2023/11/13 10:13:25;;;;;;;0.68;0.68;;;;;;;7.47;78.81;99408.06;5034903;28;20068;-71
2023/11/13 10:15:55;;;;;;;1.95;1.75;;;;;;;7.54;78.21;99404.75;5034012;28;20050;-73
2023/11/13 10:18:27;;;;;;;32.92;2.08;;;;;;;7.55;78.67;99398.84;5034489;28;20037;-72
2023/11/13 10:21:00;;;;;;;0.95;0.70;;;;;;;7.61;78.43;99395.47;5034996;28;20060;-73
2023/11/13 10:23:35;;;;;;;0.90;0.90;;;;;;;7.61;78.89;99391.25;5034714;28;20120;-72
2023/11/13 10:26:09;;;;;;;1.30;1.20;;;;;;;7.62;78.28;99385.34;5034341;28;20049;-71
2023/11/13 10:28:40;;;;;;;0.63;0.63;;;;;;;7.83;77.72;99392.22;5034203;28;20045;-73
2023/11/13 10:31:12;;;;;;;0.95;0.95;;;;;;;8.13;78.14;99391.53;5034429;28;20051;-72
2023/11/13 10:33:55;;;;;;;0.88;0.88;;;;;;;8.25;77.18;99394.97;5034539;28;20128;-71
2023/11/13 10:36:24;;;;;;;1.95;1.33;;;;;;;8.39;76.39;99389.97;5034581;28;20491;-71
2023/11/13 10:38:54;;;;;;;1.25;1.15;;;;;;;8.35;76.45;99385.72;5032860;28;20467;-71
2023/11/13 10:41:27;;;;;;;;;;;;;;;8.37;76.54;99382.34;5048842;28;20045;-71
2023/11/13 10:43:56;;;;;;;0.50;0.50;;;;;;;8.24;76.48;99365.31;5054265;28;19927;-71
2023/11/13 10:46:28;;;;;;;0.40;0.40;;;;;;;7.90;76.44;99322.81;5053684;28;20052;-72
2023/11/13 10:48:59;;;;;;;1.42;1.33;;;;;;;8.08;76.25;99348.31;5053910;28;20045;-71
2023/11/13 10:51:30;;;;;;;0.88;0.88;;;;;;;7.94;76.97;99335.53;5040852;28;20433;-72
2023/11/13 10:54:03;;;;;;;0.73;0.73;;;;;;;8.05;75.71;99354.22;5033861;28;20136;-73
2023/11/13 10:56:35;;;;;;;0.70;0.70;;;;;;;8.05;76.34;99361.84;5033763;28;20536;-73
2023/11/13 10:59:04;;;;;;;4.80;1.60;;;;;;;8.03;76.76;99352.53;5033023;28;20045;-72
2023/11/13 11:01:41;;;;;;;0.88;0.70;;;;;;;7.94;76.64;99355.84;5033848;28;20091;-71
2023/11/13 11:04:11;;;;;;;2.03;1.52;;;;;;;7.92;77.36;99352.47;5033645;28;20081;-72
2023/11/13 11:06:43;;;;;;;1.25;1.15;;;;;;;8.06;77.31;99350.81;5033705;28;20483;-72
2023/11/13 11:09:17;;;;;;;4.28;2.63;;;;;;;8.10;77.09;99334.78;5033896;28;20096;-71
2023/11/13 11:11:51;;;;;;;1.98;1.58;;;;;;;8.21;77.03;99333.94;5033249;28;20091;-73
2023/11/13 11:14:29;;;;;;;2.17;1.17;;;;;;;8.23;76.37;99337.34;5033836;28;20041;-71
2023/11/13 11:17:06;;;;;;;3.85;1.40;;;;;;;8.13;76.91;99333.06;5033196;28;20042;-73
2023/11/13 11:19:44;;;;;;;0.47;0.47;;;;;;;8.16;77.09;99340.72;5033692;28;20183;-72
2023/11/13 11:22:24;;;;;;;0.70;0.70;;;;;;;7.95;76.69;99318.59;5032300;28;20076;-73
2023/11/13 11:25:11;;;;;;;9.07;2.17;;;;;;;8.01;76.56;99336.44;5048596;28;20106;-73
2023/11/13 11:27:43;;;;;;;1.55;1.15;;;;;;;7.91;76.57;99315.22;5038978;28;20049;-72
2023/11/13 11:30:32;;;;;;;1.88;1.23;;;;;;;7.98;76.89;99332.19;5033395;28;20037;-73
2023/11/13 11:33:04;;;;;;;;;;;;;;;7.95;77.64;99318.59;5031272;28;20072;-73
2023/11/13 11:35:41;;;;;;;1.13;1.02;;;;;;;7.92;76.91;99321.97;5032861;28;19921;-72
2023/11/13 11:38:18;;;;;;;1.63;1.50;;;;;;;7.94;77.78;99319.47;5032147;28;20391;-72
2023/11/13 11:40:48;;;;;;;1.80;1.70;;;;;;;7.98;77.09;99322.03;5033475;28;20049;-72
2023/11/13 11:43:21;;;;;;;1.52;1.42;;;;;;;8.07;77.88;99327.13;5032821;28;20037;-72
2023/11/13 11:45:53;;;;;;;0.77;0.77;;;;;;;8.06;77.41;99322.88;5045393;28;20048;-71
2023/11/13 11:48:23;;;;;;;2.35;2.15;;;;;;;8.04;77.67;99314.41;5045980;28;20037;-72
2023/11/13 11:50:52;;;;;;;;;;;;;;;8.05;78.18;99318.66;5034081;28;20050;-72
2023/11/13 11:53:23;;;;;;;0.60;0.60;;;;;;;8.10;77.13;99311.91;5040261;28;20370;-73
2023/11/13 11:55:52;;;;;;;0.55;0.55;;;;;;;7.80;77.36;99258.41;5052084;28;20083;-71
2023/11/13 11:58:23;;;;;;;1.15;1.05;;;;;;;8.30;78.27;99316.22;5053644;28;20437;-73